Řízení letového provozu České republiky
Letiste: LKNA Aktualizace: 27.02.2017 10:06:04  UTC
 METAR LKNA 27.02. 10:00 ...
METAR LKNA 271000Z 13007KT CAVOK 05/M01 Q1012 NOSIG=
 TAF LKNA 27.02. 05:00 ...
TAF LKNA 270500Z 2706/2806 12004KT CAVOK      BECMG 2708/2710 15012KT      TEMPO 2714/2718 14014G24KT      BECMG 2718/2720 13006KT 5000 BR SCT015=